createdAt,value
2017-01-06T10:30:31.532Z,1034.13
2017-01-06T10:31:31.511Z,1034.11
2017-01-06T10:32:31.484Z,1034.11
2017-01-06T10:33:31.459Z,1034.08
2017-01-06T10:34:31.437Z,1034.08
2017-01-06T10:35:31.419Z,1034.07
2017-01-06T10:36:31.397Z,1034.1
2017-01-06T10:37:31.373Z,1034.07
2017-01-06T10:38:31.355Z,1034.06
2017-01-06T10:39:31.331Z,1034.05
2017-01-06T10:40:31.316Z,1034.07
2017-01-06T10:41:31.297Z,1034.03
2017-01-06T10:42:31.271Z,1034.04
2017-01-06T10:43:31.255Z,1034.1
2017-01-06T10:44:31.229Z,1034.1
2017-01-06T10:45:31.214Z,1034.07
2017-01-06T10:46:31.189Z,1034.02
2017-01-06T10:47:31.169Z,1034.05
2017-01-06T10:48:31.148Z,1034.03
2017-01-06T10:49:31.132Z,1034.04
2017-01-06T10:50:31.110Z,1034
2017-01-06T10:51:31.088Z,1033.99
2017-01-06T10:52:31.069Z,1034.03
2017-01-06T10:53:31.051Z,1034.03
2017-01-06T10:54:31.021Z,1034.03
2017-01-06T10:55:31.004Z,1034.12
2017-01-06T10:56:30.993Z,1034.13
2017-01-06T10:57:30.959Z,1034.15
2017-01-06T10:58:30.946Z,1034.14
2017-01-06T10:59:30.922Z,1034.13
2017-01-06T11:00:30.902Z,1034.14
2017-01-06T11:01:30.887Z,1034.16
2017-01-06T11:02:30.861Z,1034.15
2017-01-06T11:03:30.852Z,1034.15
2017-01-06T11:04:30.823Z,1034.15
2017-01-06T11:05:30.798Z,1034.12
2017-01-06T11:06:30.785Z,1034.16
2017-01-06T11:07:30.763Z,1034.12
2017-01-06T11:08:30.742Z,1034.14
2017-01-06T11:09:30.723Z,1034.12
2017-01-06T11:10:30.707Z,1034.12
2017-01-06T11:11:30.685Z,1034.11
2017-01-06T11:12:30.659Z,1034.09
2017-01-06T11:13:30.640Z,1034.09
2017-01-06T11:14:30.619Z,1034.09
2017-01-06T11:15:30.594Z,1034.11
2017-01-06T11:16:30.582Z,1034.08
2017-01-06T11:17:30.555Z,1034.1
2017-01-06T11:18:30.531Z,1034.06
2017-01-06T11:19:30.518Z,1034.02
2017-01-06T11:20:30.492Z,1034.01
2017-01-06T11:21:30.469Z,1033.98
2017-01-06T11:22:30.457Z,1034.02
2017-01-06T11:23:30.436Z,1034.01
2017-01-06T11:24:30.403Z,1033.96
2017-01-06T11:25:30.386Z,1034.01
2017-01-06T11:26:30.363Z,1033.95
2017-01-06T11:27:30.352Z,1033.97
2017-01-06T11:28:30.322Z,1034.01
2017-01-06T11:29:30.302Z,1034.03
2017-01-06T11:30:30.277Z,1034.04
2017-01-06T11:31:30.260Z,1034.02
2017-01-06T11:32:30.238Z,1034.01
2017-01-06T11:33:30.220Z,1033.99
2017-01-06T11:34:30.200Z,1033.93
2017-01-06T11:35:30.169Z,1033.93
2017-01-06T11:36:30.148Z,1033.9
2017-01-06T11:37:30.125Z,1033.84
2017-01-06T11:38:30.103Z,1033.84
2017-01-06T11:39:30.087Z,1033.83
2017-01-06T11:40:30.067Z,1033.77
2017-01-06T11:41:30.039Z,1033.8
2017-01-06T11:42:30.025Z,1033.82
2017-01-06T11:43:30.004Z,1033.83
2017-01-06T11:44:29.974Z,1033.79
2017-01-06T11:45:29.954Z,1033.74
2017-01-06T11:46:29.929Z,1033.73
2017-01-06T11:47:29.918Z,1033.68
2017-01-06T11:48:29.892Z,1033.74
2017-01-06T11:49:29.864Z,1033.76
2017-01-06T11:50:29.844Z,1033.74
2017-01-06T11:51:29.829Z,1033.72
2017-01-06T11:52:29.798Z,1033.77
2017-01-06T11:53:29.781Z,1033.82
2017-01-06T11:54:29.755Z,1033.79
2017-01-06T11:55:29.737Z,1033.77
2017-01-06T11:56:29.710Z,1033.77
2017-01-06T11:57:29.691Z,1033.76
2017-01-06T11:58:29.671Z,1033.77
2017-01-06T11:59:29.646Z,1033.74
2017-01-06T12:00:29.626Z,1033.7
2017-01-06T12:01:29.602Z,1033.77
2017-01-06T12:02:29.583Z,1033.69
2017-01-06T12:03:29.563Z,1033.67
2017-01-06T12:04:29.541Z,1033.68
2017-01-06T12:05:29.520Z,1033.66
2017-01-06T12:06:29.497Z,1033.69
2017-01-06T12:07:29.481Z,1033.68
2017-01-06T12:08:29.459Z,1033.64
2017-01-06T12:09:29.430Z,1033.62
2017-01-06T12:10:29.412Z,1033.57
2017-01-06T12:11:29.387Z,1033.53
2017-01-06T12:12:29.366Z,1033.5
2017-01-06T12:13:29.342Z,1033.48
2017-01-06T12:14:29.324Z,1033.42
2017-01-06T12:15:29.300Z,1033.45
2017-01-06T12:16:29.276Z,1033.47
2017-01-06T12:17:29.254Z,1033.4
2017-01-06T12:18:29.234Z,1033.34
2017-01-06T12:19:29.212Z,1033.33
2017-01-06T12:20:29.192Z,1033.23
2017-01-06T12:21:29.168Z,1033.24
2017-01-06T12:22:29.140Z,1033.18
2017-01-06T12:23:29.120Z,1033.17
2017-01-06T12:24:29.098Z,1033.2
2017-01-06T12:25:29.067Z,1033.19
2017-01-06T12:26:29.042Z,1033.16
2017-01-06T12:27:29.023Z,1033.16
2017-01-06T12:28:28.995Z,1033.09
2017-01-06T12:29:28.978Z,1033.06
2017-01-06T12:30:28.946Z,1033.05
2017-01-06T12:31:28.926Z,1033.01
2017-01-06T12:32:28.897Z,1033.03
2017-01-06T12:33:28.874Z,1032.99
2017-01-06T12:34:28.854Z,1032.94
2017-01-06T12:35:28.823Z,1032.88
2017-01-06T12:36:28.799Z,1032.93
2017-01-06T12:37:28.775Z,1032.89
2017-01-06T12:38:28.749Z,1032.85
2017-01-06T12:39:28.730Z,1032.88
2017-01-06T12:40:28.720Z,1032.86
2017-01-06T12:41:28.675Z,1032.81
2017-01-06T12:42:28.651Z,1032.76
2017-01-06T12:43:28.623Z,1032.73
2017-01-06T12:44:28.600Z,1032.7
2017-01-06T12:45:28.583Z,1032.71
2017-01-06T12:46:28.549Z,1032.68
2017-01-06T12:47:28.526Z,1032.68
2017-01-06T12:48:28.498Z,1032.67
2017-01-06T12:49:28.525Z,1032.64
2017-01-06T12:50:28.455Z,1032.64
2017-01-06T12:51:28.479Z,1032.63
2017-01-06T12:52:28.398Z,1032.62
2017-01-06T12:53:28.375Z,1032.64
2017-01-06T12:54:28.351Z,1032.67
2017-01-06T12:55:28.340Z,1032.67
2017-01-06T12:56:28.299Z,1032.67
2017-01-06T12:57:28.274Z,1032.68
2017-01-06T12:58:28.253Z,1032.66
2017-01-06T12:59:28.226Z,1032.63
2017-01-06T13:00:28.199Z,1032.6
2017-01-06T13:01:28.175Z,1032.61
2017-01-06T13:02:28.149Z,1032.6
2017-01-06T13:03:28.122Z,1032.62
2017-01-06T13:04:28.097Z,1032.63
2017-01-06T13:05:28.068Z,1032.63
2017-01-06T13:06:28.044Z,1032.67
2017-01-06T13:07:28.017Z,1032.61
2017-01-06T13:08:28.002Z,1032.57
2017-01-06T13:09:27.978Z,1032.56
2017-01-06T13:10:27.938Z,1032.56
2017-01-06T13:11:27.927Z,1032.58
2017-01-06T13:12:27.887Z,1032.56
2017-01-06T13:13:27.873Z,1032.51
2017-01-06T13:14:27.834Z,1032.49
2017-01-06T13:15:27.812Z,1032.43
2017-01-06T13:16:27.785Z,1032.45
2017-01-06T13:17:27.759Z,1032.52
2017-01-06T13:18:27.727Z,1032.57
2017-01-06T13:19:27.708Z,1032.62
2017-01-06T13:20:27.679Z,1032.68
2017-01-06T13:21:27.656Z,1032.69
2017-01-06T13:22:27.623Z,1032.7
2017-01-06T13:23:27.600Z,1032.64
2017-01-06T13:24:27.577Z,1032.66
2017-01-06T13:25:27.544Z,1032.66
2017-01-06T13:26:27.526Z,1032.6
2017-01-06T13:27:27.495Z,1032.59
2017-01-06T13:28:27.471Z,1032.61
2017-01-06T13:29:27.442Z,1032.57
2017-01-06T13:30:27.416Z,1032.52
2017-01-06T13:31:27.388Z,1032.56
2017-01-06T13:32:27.362Z,1032.57
2017-01-06T13:33:27.338Z,1032.58
2017-01-06T13:34:27.310Z,1032.58
2017-01-06T13:35:27.292Z,1032.56
2017-01-06T13:36:27.259Z,1032.51
2017-01-06T13:37:27.233Z,1032.54
2017-01-06T13:38:27.208Z,1032.49
2017-01-06T13:39:27.179Z,1032.49
2017-01-06T13:40:27.154Z,1032.49
2017-01-06T13:41:27.127Z,1032.48
2017-01-06T13:42:27.107Z,1032.48
2017-01-06T13:43:27.077Z,1032.47
2017-01-06T13:44:27.053Z,1032.44
2017-01-06T13:45:27.022Z,1032.43
2017-01-06T13:46:27.002Z,1032.36
2017-01-06T13:47:26.971Z,1032.36
2017-01-06T13:48:26.941Z,1032.34
2017-01-06T13:49:26.921Z,1032.41
2017-01-06T13:50:26.892Z,1032.4
2017-01-06T13:51:26.868Z,1032.43
2017-01-06T13:52:26.840Z,1032.4
2017-01-06T13:53:26.814Z,1032.4
2017-01-06T13:54:26.786Z,1032.37
2017-01-06T13:55:26.763Z,1032.36
2017-01-06T13:56:26.734Z,1032.37
2017-01-06T13:57:26.704Z,1032.37
2017-01-06T13:58:26.680Z,1032.4
2017-01-06T13:59:26.654Z,1032.33
2017-01-06T14:00:26.634Z,1032.35
2017-01-06T14:01:26.601Z,1032.35
2017-01-06T14:02:26.573Z,1032.34
2017-01-06T14:03:26.564Z,1032.35
2017-01-06T14:04:26.532Z,1032.32
2017-01-06T14:05:26.490Z,1032.31
2017-01-06T14:06:26.473Z,1032.33
2017-01-06T14:07:26.442Z,1032.31
2017-01-06T14:08:26.417Z,1032.31
2017-01-06T14:09:26.385Z,1032.34
2017-01-06T14:10:26.402Z,1032.32
2017-01-06T14:11:26.336Z,1032.36
2017-01-06T14:12:26.307Z,1032.37
2017-01-06T14:13:26.280Z,1032.35
2017-01-06T14:14:26.254Z,1032.35
2017-01-06T14:15:26.225Z,1032.31
2017-01-06T14:16:26.199Z,1032.31
2017-01-06T14:17:26.176Z,1032.3
2017-01-06T14:18:26.149Z,1032.28
2017-01-06T14:19:26.122Z,1032.28
2017-01-06T14:20:26.091Z,1032.29
2017-01-06T14:21:26.069Z,1032.25
2017-01-06T14:22:26.040Z,1032.23
2017-01-06T14:23:26.016Z,1032.2
2017-01-06T14:24:25.987Z,1032.23
2017-01-06T14:25:25.959Z,1032.19
2017-01-06T14:26:25.938Z,1032.21
2017-01-06T14:27:25.908Z,1032.18
2017-01-06T14:28:25.888Z,1032.21
2017-01-06T14:29:25.853Z,1032.18
2017-01-06T14:30:25.838Z,1032.27
2017-01-06T14:31:25.803Z,1032.27
2017-01-06T14:32:25.780Z,1032.28
2017-01-06T14:33:25.748Z,1032.26
2017-01-06T14:34:25.721Z,1032.25
2017-01-06T14:35:25.695Z,1032.28
2017-01-06T14:36:25.676Z,1032.27
2017-01-06T14:37:25.637Z,1032.29
2017-01-06T14:38:25.616Z,1032.25
2017-01-06T14:39:25.586Z,1032.26
2017-01-06T14:40:25.563Z,1032.27
2017-01-06T14:41:25.531Z,1032.17
2017-01-06T14:42:25.504Z,1032.16
2017-01-06T14:43:25.481Z,1032.15
2017-01-06T14:44:25.451Z,1032.1
2017-01-06T14:45:25.419Z,1032.13
2017-01-06T14:46:25.390Z,1032.17
2017-01-06T14:47:25.363Z,1032.18
2017-01-06T14:48:25.337Z,1032.13
2017-01-06T14:49:25.307Z,1032.17
2017-01-06T14:50:25.288Z,1032.15
2017-01-06T14:51:25.255Z,1032.17
2017-01-06T14:52:25.222Z,1032.14
2017-01-06T14:53:25.195Z,1032.13
2017-01-06T14:54:25.165Z,1032.14
2017-01-06T14:55:25.140Z,1032.18
2017-01-06T14:56:25.112Z,1032.19
2017-01-06T14:57:25.082Z,1032.17
2017-01-06T14:58:25.053Z,1032.15
2017-01-06T14:59:25.077Z,1032.11
2017-01-06T15:00:24.997Z,1032.08
2017-01-06T15:01:24.972Z,1032.11
2017-01-06T15:02:24.941Z,1032.09
2017-01-06T15:03:24.918Z,1032.07
2017-01-06T15:04:24.889Z,1032.04
2017-01-06T15:05:24.859Z,1032.05
2017-01-06T15:06:24.829Z,1032.01
2017-01-06T15:07:24.898Z,1032.03
2017-01-06T15:08:24.769Z,1032
2017-01-06T15:09:24.757Z,1032.04
2017-01-06T15:10:24.716Z,1032.03
2017-01-06T15:11:24.691Z,1032.03
2017-01-06T15:12:24.661Z,1032.01
2017-01-06T15:13:24.676Z,1032.05
2017-01-06T15:14:24.606Z,1032.05
2017-01-06T15:15:24.580Z,1032.06
2017-01-06T15:16:24.550Z,1032.06
2017-01-06T15:17:24.523Z,1032.08
2017-01-06T15:18:24.494Z,1032.07
2017-01-06T15:19:24.474Z,1032.05
2017-01-06T15:20:24.430Z,1032.06
2017-01-06T15:21:24.409Z,1032.05
2017-01-06T15:22:24.386Z,1032.06
2017-01-06T15:23:24.348Z,1032.07
2017-01-06T15:24:24.318Z,1032.11
2017-01-06T15:25:24.295Z,1032.07
2017-01-06T15:26:24.262Z,1032.12
2017-01-06T15:27:24.236Z,1032.13
2017-01-06T15:28:24.205Z,1032.14
2017-01-06T15:29:24.176Z,1032.13
2017-01-06T15:30:24.154Z,1032.09
2017-01-06T15:31:24.119Z,1032.1
2017-01-06T15:32:24.093Z,1032.06
2017-01-06T15:33:24.061Z,1032.04
2017-01-06T15:34:24.039Z,1032.03
2017-01-06T15:35:24.007Z,1032.09
2017-01-06T15:36:23.976Z,1032.09
2017-01-06T15:37:23.950Z,1032.11
2017-01-06T15:38:23.921Z,1032.13
2017-01-06T15:39:23.892Z,1032.12
2017-01-06T15:40:23.869Z,1032.16
2017-01-06T15:41:23.840Z,1032.17
2017-01-06T15:42:23.810Z,1032.17
2017-01-06T15:43:23.781Z,1032.17
2017-01-06T15:44:23.752Z,1032.15
2017-01-06T15:45:23.726Z,1032.15
2017-01-06T15:46:23.695Z,1032.13
2017-01-06T15:47:23.665Z,1032.13
2017-01-06T15:48:23.638Z,1032.12
2017-01-06T15:49:23.607Z,1032.1
2017-01-06T15:50:23.578Z,1032.11
2017-01-06T15:51:23.549Z,1032.12
2017-01-06T15:52:23.522Z,1032.11
2017-01-06T15:53:23.493Z,1032.15
2017-01-06T15:54:23.470Z,1032.18
2017-01-06T15:55:23.438Z,1032.15
2017-01-06T15:56:23.409Z,1032.13
2017-01-06T15:57:23.380Z,1032.05
2017-01-06T15:58:23.349Z,1032.09
2017-01-06T15:59:23.326Z,1032.08
2017-01-06T16:00:23.298Z,1032.03
2017-01-06T16:01:23.268Z,1032.04
2017-01-06T16:02:23.238Z,1032.02
2017-01-06T16:03:23.207Z,1031.99
2017-01-06T16:04:23.185Z,1031.97
2017-01-06T16:05:23.154Z,1031.94
2017-01-06T16:06:23.134Z,1031.94
2017-01-06T16:07:23.092Z,1031.93
2017-01-06T16:08:23.190Z,1031.89
2017-01-06T16:09:23.040Z,1031.88
2017-01-06T16:10:23.018Z,1031.93
2017-01-06T16:11:22.987Z,1031.89
2017-01-06T16:12:22.953Z,1031.86
2017-01-06T16:13:22.938Z,1031.86
2017-01-06T16:14:22.899Z,1031.82
2017-01-06T16:15:22.871Z,1031.85
2017-01-06T16:16:22.840Z,1031.9
2017-01-06T16:17:22.818Z,1031.84
2017-01-06T16:18:22.781Z,1031.85
2017-01-06T16:19:22.757Z,1031.84
2017-01-06T16:20:22.730Z,1031.86
2017-01-06T16:21:22.695Z,1031.9
2017-01-06T16:22:22.671Z,1031.91
2017-01-06T16:23:22.640Z,1031.94
2017-01-06T16:24:22.616Z,1031.86
2017-01-06T16:25:22.585Z,1031.88
2017-01-06T16:26:22.557Z,1031.81
2017-01-06T16:27:22.526Z,1031.8
2017-01-06T16:28:22.505Z,1031.8
2017-01-06T16:29:22.470Z,1031.81
2017-01-06T16:30:22.441Z,1031.8
2017-01-06T16:31:22.423Z,1031.78
2017-01-06T16:32:22.383Z,1031.79
2017-01-06T16:33:22.364Z,1031.73
2017-01-06T16:34:22.329Z,1031.79
2017-01-06T16:35:22.307Z,1031.73
2017-01-06T16:36:22.273Z,1031.73
2017-01-06T16:37:22.243Z,1031.77
2017-01-06T16:38:22.211Z,1031.77
2017-01-06T16:39:22.187Z,1031.76
2017-01-06T16:40:22.156Z,1031.72
2017-01-06T16:41:22.130Z,1031.7
2017-01-06T16:42:22.100Z,1031.62
2017-01-06T16:43:22.068Z,1031.65
2017-01-06T16:44:22.044Z,1031.61
2017-01-06T16:45:22.014Z,1031.61
2017-01-06T16:46:21.992Z,1031.62
2017-01-06T16:47:21.957Z,1031.62
2017-01-06T16:48:21.928Z,1031.67
2017-01-06T16:49:21.900Z,1031.66
2017-01-06T16:50:21.872Z,1031.62
2017-01-06T16:51:21.855Z,1031.6
2017-01-06T16:52:21.814Z,1031.61
2017-01-06T16:53:21.785Z,1031.62
2017-01-06T16:54:21.762Z,1031.58
2017-01-06T16:55:21.734Z,1031.6
2017-01-06T16:56:21.701Z,1031.62
2017-01-06T16:57:21.674Z,1031.6
2017-01-06T16:58:21.641Z,1031.62
2017-01-06T16:59:21.623Z,1031.64
2017-01-06T17:00:21.592Z,1031.62
2017-01-06T17:01:21.563Z,1031.61
2017-01-06T17:02:21.528Z,1031.63
2017-01-06T17:03:21.510Z,1031.61
2017-01-06T17:04:21.468Z,1031.62
2017-01-06T17:05:21.446Z,1031.58
2017-01-06T17:06:21.418Z,1031.6
2017-01-06T17:07:21.388Z,1031.6
2017-01-06T17:08:21.356Z,1031.58
2017-01-06T17:09:21.326Z,1031.56
2017-01-06T17:10:21.304Z,1031.53
2017-01-06T17:11:21.265Z,1031.53
2017-01-06T17:12:21.242Z,1031.53
2017-01-06T17:13:21.209Z,1031.51
2017-01-06T17:14:21.184Z,1031.52
2017-01-06T17:15:21.148Z,1031.49
2017-01-06T17:16:21.123Z,1031.52
2017-01-06T17:17:21.092Z,1031.52
2017-01-06T17:18:21.062Z,1031.5
2017-01-06T17:19:21.041Z,1031.48
2017-01-06T17:20:21.014Z,1031.45
2017-01-06T17:21:20.978Z,1031.42
2017-01-06T17:22:20.950Z,1031.37
2017-01-06T17:23:20.919Z,1031.42
2017-01-06T17:24:20.889Z,1031.38
2017-01-06T17:25:20.857Z,1031.41
2017-01-06T17:26:20.827Z,1031.37
2017-01-06T17:27:20.804Z,1031.34
2017-01-06T17:28:20.772Z,1031.36
2017-01-06T17:29:20.742Z,1031.36
2017-01-06T17:30:20.715Z,1031.36
2017-01-06T17:31:20.690Z,1031.32
2017-01-06T17:32:20.655Z,1031.31
2017-01-06T17:33:20.637Z,1031.3
2017-01-06T17:34:20.655Z,1031.31
2017-01-06T17:35:20.570Z,1031.31
2017-01-06T17:36:20.602Z,1031.31
2017-01-06T17:37:20.513Z,1031.34
2017-01-06T17:38:20.482Z,1031.33
2017-01-06T17:39:20.453Z,1031.29
2017-01-06T17:40:20.421Z,1031.3
2017-01-06T17:41:20.390Z,1031.27
2017-01-06T17:42:20.359Z,1031.25
2017-01-06T17:43:20.329Z,1031.24
2017-01-06T17:44:20.300Z,1031.21
2017-01-06T17:45:20.275Z,1031.2
2017-01-06T17:46:20.239Z,1031.18
2017-01-06T17:47:20.217Z,1031.23
2017-01-06T17:48:20.187Z,1031.25
2017-01-06T17:49:20.167Z,1031.27
2017-01-06T17:50:20.132Z,1031.26
2017-01-06T17:51:20.097Z,1031.25
2017-01-06T17:52:20.065Z,1031.26
2017-01-06T17:53:20.043Z,1031.19
2017-01-06T17:54:20.013Z,1031.19
2017-01-06T17:55:19.982Z,1031.2
2017-01-06T17:56:19.950Z,1031.26
2017-01-06T17:57:19.918Z,1031.27
2017-01-06T17:58:19.891Z,1031.32
2017-01-06T17:59:19.861Z,1031.3
2017-01-06T18:00:19.831Z,1031.27
2017-01-06T18:01:19.809Z,1031.25
2017-01-06T18:02:19.782Z,1031.19
2017-01-06T18:03:19.749Z,1031.17
2017-01-06T18:04:19.713Z,1031.18
2017-01-06T18:05:19.689Z,1031.19
2017-01-06T18:06:19.658Z,1031.24
2017-01-06T18:07:19.637Z,1031.22
2017-01-06T18:08:19.599Z,1031.2
2017-01-06T18:09:19.571Z,1031.17
2017-01-06T18:10:19.540Z,1031.17
2017-01-06T18:11:19.507Z,1031.14
2017-01-06T18:12:19.483Z,1031.14
2017-01-06T18:13:19.459Z,1031.2
2017-01-06T18:14:19.423Z,1031.2
2017-01-06T18:15:19.395Z,1031.23
2017-01-06T18:16:19.362Z,1031.21
2017-01-06T18:17:19.333Z,1031.2
2017-01-06T18:18:19.304Z,1031.19
2017-01-06T18:19:19.288Z,1031.17
2017-01-06T18:20:19.251Z,1031.18
2017-01-06T18:21:19.217Z,1031.09
2017-01-06T18:22:19.190Z,1031.12
2017-01-06T18:23:19.158Z,1031.13
2017-01-06T18:24:19.129Z,1031.09
2017-01-06T18:25:19.102Z,1031.08
2017-01-06T18:26:19.076Z,1031.06
2017-01-06T18:27:19.094Z,1031.04
2017-01-06T18:28:19.013Z,1031.09
2017-01-06T18:29:18.983Z,1031.05
2017-01-06T18:30:18.955Z,1031.04
2017-01-06T18:31:18.995Z,1031.01
2017-01-06T18:32:18.897Z,1031.02
2017-01-06T18:33:18.874Z,1031.04
2017-01-06T18:34:18.841Z,1031.06
2017-01-06T18:35:18.812Z,1031.08
2017-01-06T18:36:18.779Z,1031.08
2017-01-06T18:37:18.752Z,1031.11
2017-01-06T18:38:18.720Z,1031.11
2017-01-06T18:39:18.692Z,1031.1
2017-01-06T18:40:18.659Z,1031.07
2017-01-06T18:41:18.637Z,1031.02
2017-01-06T18:42:18.608Z,1030.99
2017-01-06T18:43:18.574Z,1031.04
2017-01-06T18:44:18.545Z,1031.08
2017-01-06T18:45:18.516Z,1031.1
2017-01-06T18:46:18.486Z,1031.06
2017-01-06T18:47:18.455Z,1031.05
2017-01-06T18:48:18.425Z,1031.06
2017-01-06T18:49:18.398Z,1031.01
2017-01-06T18:50:18.378Z,1031.08
2017-01-06T18:51:18.339Z,1031.09
2017-01-06T18:52:18.316Z,1031.13
2017-01-06T18:53:18.283Z,1031.16
2017-01-06T18:54:18.250Z,1031.12
2017-01-06T18:55:18.222Z,1031.11
2017-01-06T18:56:18.193Z,1031.12
2017-01-06T18:57:18.167Z,1031.05
2017-01-06T18:58:18.142Z,1031.08
2017-01-06T18:59:18.111Z,1031.05
2017-01-06T19:00:18.079Z,1031.06
2017-01-06T19:01:18.057Z,1031.06
2017-01-06T19:02:18.017Z,1031.04
2017-01-06T19:03:17.987Z,1031.06
2017-01-06T19:04:17.959Z,1031.06
2017-01-06T19:05:17.934Z,1031.02
2017-01-06T19:06:17.902Z,1031
2017-01-06T19:07:17.878Z,1030.93
2017-01-06T19:08:17.846Z,1030.87
2017-01-06T19:09:17.819Z,1030.84
2017-01-06T19:10:17.784Z,1030.8
2017-01-06T19:11:17.760Z,1030.79
2017-01-06T19:12:17.725Z,1030.81
2017-01-06T19:13:17.700Z,1030.77
2017-01-06T19:14:17.668Z,1030.8
2017-01-06T19:15:17.639Z,1030.8
2017-01-06T19:16:17.630Z,1030.77
2017-01-06T19:17:17.580Z,1030.71
2017-01-06T19:18:17.559Z,1030.72
2017-01-06T19:19:17.525Z,1030.74
2017-01-06T19:20:17.492Z,1030.73
2017-01-06T19:21:17.462Z,1030.73
2017-01-06T19:22:17.436Z,1030.78
2017-01-06T19:23:17.406Z,1030.73
2017-01-06T19:24:17.378Z,1030.72
2017-01-06T19:25:17.351Z,1030.74
2017-01-06T19:26:17.415Z,1030.73
2017-01-06T19:27:17.284Z,1030.77
2017-01-06T19:28:17.303Z,1030.72
2017-01-06T19:29:17.236Z,1030.71
2017-01-06T19:30:17.199Z,1030.68
2017-01-06T19:31:17.171Z,1030.62
2017-01-06T19:32:17.136Z,1030.6
2017-01-06T19:33:17.112Z,1030.54
2017-01-06T19:34:17.081Z,1030.54
2017-01-06T19:35:17.052Z,1030.54
2017-01-06T19:36:17.025Z,1030.5
2017-01-06T19:37:17.002Z,1030.57
2017-01-06T19:38:16.961Z,1030.58
2017-01-06T19:39:16.938Z,1030.56
2017-01-06T19:40:16.906Z,1030.52
2017-01-06T19:41:16.885Z,1030.56
2017-01-06T19:42:16.847Z,1030.55
2017-01-06T19:43:16.818Z,1030.58
2017-01-06T19:44:16.797Z,1030.58
2017-01-06T19:45:16.755Z,1030.5
2017-01-06T19:46:16.735Z,1030.43
2017-01-06T19:47:16.695Z,1030.4
2017-01-06T19:48:16.680Z,1030.34
2017-01-06T19:49:16.637Z,1030.3
2017-01-06T19:50:16.613Z,1030.31
2017-01-06T19:51:16.582Z,1030.28
2017-01-06T19:52:16.555Z,1030.36
2017-01-06T19:53:16.525Z,1030.41
2017-01-06T19:54:16.489Z,1030.42
2017-01-06T19:55:16.469Z,1030.39
2017-01-06T19:56:16.440Z,1030.36
2017-01-06T19:57:16.406Z,1030.33
2017-01-06T19:58:16.376Z,1030.29
2017-01-06T19:59:16.346Z,1030.28
2017-01-06T20:00:16.348Z,1030.27
2017-01-06T20:01:16.293Z,1030.24
2017-01-06T20:02:16.267Z,1030.23
2017-01-06T20:03:16.224Z,1030.25
2017-01-06T20:04:16.203Z,1030.25
2017-01-06T20:05:16.165Z,1030.24
2017-01-06T20:06:16.153Z,1030.31
2017-01-06T20:07:16.114Z,1030.27
2017-01-06T20:08:16.102Z,1030.31
2017-01-06T20:09:16.080Z,1030.28
2017-01-06T20:10:16.059Z,1030.27
2017-01-06T20:11:16.038Z,1030.25
2017-01-06T20:12:16.019Z,1030.24
2017-01-06T20:13:15.958Z,1030.24
2017-01-06T20:14:15.938Z,1030.22
2017-01-06T20:15:15.915Z,1030.27
2017-01-06T20:16:15.866Z,1030.3
2017-01-06T20:17:15.844Z,1030.27
2017-01-06T20:18:15.817Z,1030.23
2017-01-06T20:19:15.774Z,1030.22
2017-01-06T20:20:15.733Z,1030.2
2017-01-06T20:21:15.724Z,1030.22
2017-01-06T20:22:15.683Z,1030.28
2017-01-06T20:23:15.661Z,1030.25
2017-01-06T20:24:15.651Z,1030.27
2017-01-06T20:25:15.592Z,1030.29
2017-01-06T20:26:15.579Z,1030.29
2017-01-06T20:27:15.541Z,1030.3
2017-01-06T20:28:15.504Z,1030.31
2017-01-06T20:29:15.475Z,1030.34
2017-01-06T20:30:15.451Z,1030.34
2017-01-06T20:31:15.408Z,1030.27
2017-01-06T20:32:15.398Z,1030.26
2017-01-06T20:33:15.400Z,1030.22
2017-01-06T20:34:15.362Z,1030.2
2017-01-06T20:35:15.323Z,1030.18
2017-01-06T20:36:15.292Z,1030.17
2017-01-06T20:37:15.265Z,1030.19
2017-01-06T20:38:15.235Z,1030.21
2017-01-06T20:39:15.182Z,1030.25
2017-01-06T20:40:15.143Z,1030.25
2017-01-06T20:41:15.135Z,1030.24
2017-01-06T20:42:15.103Z,1030.27
2017-01-06T20:43:15.073Z,1030.24
2017-01-06T20:44:15.036Z,1030.26
2017-01-06T20:45:15.022Z,1030.26
2017-01-06T20:46:14.990Z,1030.26
2017-01-06T20:47:14.939Z,1030.23
2017-01-06T20:48:14.920Z,1030.29
2017-01-06T20:49:14.898Z,1030.3
2017-01-06T20:50:14.874Z,1030.36
2017-01-06T20:51:14.864Z,1030.34
2017-01-06T20:52:14.935Z,1030.31
2017-01-06T20:53:14.807Z,1030.37
2017-01-06T20:54:14.772Z,1030.36
2017-01-06T20:55:14.715Z,1030.38
2017-01-06T20:56:14.706Z,1030.35
2017-01-06T20:57:14.705Z,1030.35
2017-01-06T20:58:14.622Z,1030.34
2017-01-06T20:59:14.602Z,1030.35
2017-01-06T21:00:14.572Z,1030.34
2017-01-06T21:01:14.532Z,1030.35
2017-01-06T21:02:14.488Z,1030.34
2017-01-06T21:03:14.472Z,1030.36
2017-01-06T21:04:14.439Z,1030.33
2017-01-06T21:05:14.409Z,1030.36
2017-01-06T21:06:14.357Z,1030.32
2017-01-06T21:07:14.336Z,1030.34
2017-01-06T21:08:14.298Z,1030.33
2017-01-06T21:09:14.267Z,1030.32
2017-01-06T21:10:14.236Z,1030.36
2017-01-06T21:11:14.206Z,1030.36
2017-01-06T21:12:14.178Z,1030.33
2017-01-06T21:13:14.139Z,1030.33
2017-01-06T21:14:14.112Z,1030.36
2017-01-06T21:15:14.100Z,1030.29
2017-01-06T21:16:14.071Z,1030.34
2017-01-06T21:17:14.061Z,1030.34
2017-01-06T21:18:14.015Z,1030.33
2017-01-06T21:19:13.980Z,1030.32
2017-01-06T21:20:13.960Z,1030.37
2017-01-06T21:21:13.937Z,1030.35
2017-01-06T21:22:13.901Z,1030.32
2017-01-06T21:23:13.857Z,1030.31
2017-01-06T21:24:13.841Z,1030.29
2017-01-06T21:25:13.809Z,1030.32
2017-01-06T21:26:13.777Z,1030.26
2017-01-06T21:27:13.729Z,1030.27
2017-01-06T21:28:13.729Z,1030.21
2017-01-06T21:29:13.681Z,1030.22
2017-01-06T21:30:13.724Z,1030.24
2017-01-06T21:31:13.643Z,1030.17
2017-01-06T21:32:13.618Z,1030.2
2017-01-06T21:33:13.564Z,1030.18
2017-01-06T21:34:13.537Z,1030.13
2017-01-06T21:35:13.555Z,1030.18
2017-01-06T21:36:13.481Z,1030.11
2017-01-06T21:37:13.451Z,1030.12
2017-01-06T21:38:13.422Z,1030.08
2017-01-06T21:39:13.389Z,1030.11
2017-01-06T21:40:13.378Z,1030.1
2017-01-06T21:41:13.316Z,1030.06
2017-01-06T21:42:13.291Z,1030.07
2017-01-06T21:43:13.247Z,1030.08
2017-01-06T21:44:13.224Z,1030.06
2017-01-06T21:45:13.240Z,1029.97
2017-01-06T21:46:13.158Z,1029.97
2017-01-06T21:47:13.128Z,1029.98
2017-01-06T21:48:13.104Z,1029.94
2017-01-06T21:49:13.071Z,1029.97
2017-01-06T21:50:13.035Z,1029.96
2017-01-06T21:51:13.009Z,1029.97
2017-01-06T21:52:12.976Z,1029.96
2017-01-06T21:53:12.946Z,1029.97
2017-01-06T21:54:12.911Z,1029.98
2017-01-06T21:55:12.874Z,1029.97
2017-01-06T21:56:12.850Z,1029.93
2017-01-06T21:57:12.823Z,1029.92
2017-01-06T21:58:12.790Z,1029.89
2017-01-06T21:59:12.758Z,1029.89
2017-01-06T22:00:12.727Z,1029.93
2017-01-06T22:01:12.704Z,1029.87
2017-01-06T22:02:12.668Z,1029.91
2017-01-06T22:03:12.633Z,1029.88
2017-01-06T22:04:12.609Z,1029.88
2017-01-06T22:05:12.579Z,1029.9
2017-01-06T22:06:12.546Z,1029.88
2017-01-06T22:07:12.513Z,1029.88
2017-01-06T22:08:12.484Z,1029.87
2017-01-06T22:09:12.463Z,1029.82
2017-01-06T22:10:12.424Z,1029.81
2017-01-06T22:11:12.393Z,1029.82
2017-01-06T22:12:12.366Z,1029.82
2017-01-06T22:13:12.342Z,1029.82
2017-01-06T22:14:12.303Z,1029.84
2017-01-06T22:15:12.276Z,1029.8
2017-01-06T22:16:12.252Z,1029.8
2017-01-06T22:17:12.222Z,1029.83
2017-01-06T22:18:12.180Z,1029.85
2017-01-06T22:19:12.157Z,1029.82
2017-01-06T22:20:12.126Z,1029.79
2017-01-06T22:21:12.103Z,1029.75
2017-01-06T22:22:12.062Z,1029.73
2017-01-06T22:23:12.038Z,1029.68
2017-01-06T22:24:12.005Z,1029.66
2017-01-06T22:25:11.977Z,1029.67
2017-01-06T22:26:11.939Z,1029.66
2017-01-06T22:27:11.915Z,1029.66
2017-01-06T22:28:11.885Z,1029.61
2017-01-06T22:29:11.847Z,1029.65
2017-01-06T22:30:11.825Z,1029.65
2017-01-06T22:31:11.793Z,1029.64
2017-01-06T22:32:11.764Z,1029.64
2017-01-06T22:33:11.732Z,1029.64
2017-01-06T22:34:11.705Z,1029.62
2017-01-06T22:35:11.672Z,1029.62
2017-01-06T22:36:11.642Z,1029.62
2017-01-06T22:37:11.610Z,1029.59
2017-01-06T22:38:11.582Z,1029.61